Time;durP1;ratioP1;P1;durP2;ratioP2;P2;SDS_P1;SDS_P2;PMS_P1;PMS_P2;Temp;Humidity;BMP_temperature;BMP_pressure;BME280_temperature;BME280_humidity;BME280_pressure;Samples;Min_cycle;Max_cycle;Signal;HPM_P1;HPM_P2
2023/03/16 00:01:53;;;;;;;3.60;1.93;;;;;;;3.71;86.00;99641.28;6301693;22;20182;-82
2023/03/16 00:04:50;;;;;;;2.63;1.90;;;;;;;3.70;86.43;99640.47;6305442;22;20215;-82
2023/03/16 00:07:38;;;;;;;2.73;1.60;;;;;;;3.55;87.08;99639.56;6305340;22;20172;-82
2023/03/16 00:10:45;;;;;;;2.67;1.90;;;;;;;3.54;87.43;99641.41;6238649;22;20172;-81
2023/03/16 00:14:04;;;;;;;2.53;1.80;;;;;;;3.57;87.98;99648.16;6292938;22;20147;-81
2023/03/16 00:17:17;;;;;;;2.17;1.70;;;;;;;3.66;87.84;99646.28;6262784;22;20179;-82
2023/03/16 00:20:23;;;;;;;2.00;1.80;;;;;;;3.53;88.38;99652.16;6318350;22;20168;-81
2023/03/16 00:23:41;;;;;;;3.33;2.00;;;;;;;3.49;88.85;99658.81;6333117;22;20150;-82
2023/03/16 00:27:13;;;;;;;3.23;1.90;;;;;;;3.34;89.27;99663.19;6282764;22;20182;-81
2023/03/16 00:30:07;;;;;;;1.93;1.80;;;;;;;3.47;89.63;99674.88;6242947;22;20167;-81
2023/03/16 00:32:52;;;;;;;1.90;1.80;;;;;;;3.54;89.55;99667.91;6342369;22;20258;-81
2023/03/16 00:36:15;;;;;;;2.60;1.87;;;;;;;3.49;90.15;99662.28;6363762;22;20162;-82
2023/03/16 00:39:13;;;;;;;2.00;1.70;;;;;;;3.53;89.85;99662.78;6353305;22;20154;-82
2023/03/16 00:42:03;;;;;;;2.13;1.90;;;;;;;3.51;90.51;99672.69;6316264;22;20669;-81
2023/03/16 00:45:12;;;;;;;3.50;1.87;;;;;;;3.63;90.43;99659.91;6362215;22;20190;-81
2023/03/16 00:48:09;;;;;;;3.37;2.33;;;;;;;3.58;90.85;99662.25;6276195;22;20168;-81
2023/03/16 00:51:24;;;;;;;2.30;1.90;;;;;;;3.59;91.04;99667.38;6341203;22;20143;-81
2023/03/16 00:54:18;;;;;;;2.53;1.90;;;;;;;3.68;90.89;99679.59;6340311;22;20163;-81
2023/03/16 00:57:33;;;;;;;2.77;1.73;;;;;;;3.53;91.65;99678.66;6364682;22;20156;-81
2023/03/16 01:00:39;;;;;;;2.20;2.00;;;;;;;3.53;91.31;99684.78;6341991;22;20186;-82
2023/03/16 01:07:30;;;;;;;2.53;2.20;;;;;;;3.27;92.56;99680.75;6349943;22;20143;-81
2023/03/16 01:10:57;;;;;;;2.07;1.93;;;;;;;3.25;92.12;99691.53;6365285;22;20207;-81
2023/03/16 01:14:25;;;;;;;2.47;1.90;;;;;;;3.15;92.87;99695.38;6228895;23;20171;-82
2023/03/16 01:17:16;;;;;;;2.37;2.07;;;;;;;2.98;93.28;99690.13;6232219;23;20169;-81
2023/03/16 01:20:39;;;;;;;2.20;2.00;;;;;;;2.97;93.34;99693.75;6228974;23;20176;-82
2023/03/16 01:24:23;;;;;;;3.43;2.50;;;;;;;2.90;94.14;99702.53;6271665;23;20205;-82
2023/03/16 01:34:15;;;;;;;2.30;2.10;;;;;;;2.85;94.35;99704.84;6211555;23;20206;-81
2023/03/16 01:37:21;;;;;;;3.30;2.50;;;;;;;2.71;94.68;99700.28;6212169;23;20134;-82
2023/03/16 01:44:00;;;;;;;3.20;2.60;;;;;;;2.68;94.42;99722.59;6277615;22;20200;31
2023/03/16 01:46:58;;;;;;;4.43;2.80;;;;;;;2.54;94.54;99718.78;6209180;23;20189;-82
2023/03/16 01:56:07;;;;;;;3.37;2.50;;;;;;;2.55;94.06;99720.44;6320736;22;20293;-81
2023/03/16 01:59:18;;;;;;;3.83;2.63;;;;;;;2.67;94.24;99728.84;6313699;22;20143;-82
2023/03/16 02:15:53;;;;;;;3.53;3.07;;;;;;;2.09;97.54;99721.09;6303140;22;20154;-82
2023/03/16 02:18:48;;;;;;;3.20;2.90;;;;;;;2.13;97.51;99727.69;6281567;22;20165;-82
2023/03/16 02:26:25;;;;;;;3.43;2.87;;;;;;;2.06;97.58;99727.50;6320574;22;20187;-82
2023/03/16 02:30:24;;;;;;;3.03;2.83;;;;;;;1.99;97.80;99733.63;6243116;23;20181;-82
2023/03/16 02:40:12;;;;;;;4.00;3.00;;;;;;;1.90;98.14;99732.78;6212774;23;20230;-82
2023/03/16 02:43:40;;;;;;;3.40;3.10;;;;;;;1.96;98.98;99740.03;6212874;23;20153;-81
2023/03/16 02:49:53;;;;;;;4.37;3.60;;;;;;;2.11;98.57;99756.94;6242393;22;20203;31
2023/03/16 02:53:35;;;;;;;3.23;2.87;;;;;;;2.01;98.21;99753.59;6241030;22;20188;-84
2023/03/16 02:56:53;;;;;;;3.43;3.10;;;;;;;2.04;98.62;99766.50;6191256;23;20153;-84
2023/03/16 03:03:08;;;;;;;4.67;3.23;;;;;;;1.97;99.18;99762.84;6304763;22;20230;-83
2023/03/16 03:06:46;;;;;;;3.77;3.37;;;;;;;2.09;99.53;99772.13;6272286;22;20214;-83
2023/03/16 03:10:43;;;;;;;3.60;3.30;;;;;;;2.10;99.15;99780.91;6296896;22;20208;-82
2023/03/16 03:13:57;;;;;;;3.97;3.57;;;;;;;1.95;99.67;99777.22;6300361;22;20164;-82
2023/03/16 03:17:59;;;;;;;4.03;3.63;;;;;;;1.97;99.85;99789.25;6287155;22;20156;-82
2023/03/16 03:21:40;;;;;;;4.87;3.80;;;;;;;1.87;100.00;99783.28;6304510;22;20212;-82
2023/03/16 03:25:36;;;;;;;3.90;3.50;;;;;;;1.99;99.60;99802.31;6294522;22;20206;-83
2023/03/16 03:33:06;;;;;;;4.00;3.60;;;;;;;1.69;100.00;99806.34;6305015;22;20159;-82
2023/03/16 03:36:52;;;;;;;4.70;3.90;;;;;;;1.71;99.87;99807.84;6305342;22;20171;-83
2023/03/16 03:41:14;;;;;;;4.50;4.10;;;;;;;1.54;100.00;99819.28;6295019;22;20292;-83
2023/03/16 03:49:10;;;;;;;4.20;3.63;;;;;;;1.49;100.00;99811.03;6246483;22;20179;-82
2023/03/16 03:52:29;;;;;;;5.77;4.17;;;;;;;1.47;100.00;99822.72;6220400;22;20168;-82
2023/03/16 04:14:33;;;;;;;4.57;4.10;;;;;;;1.32;100.00;99825.13;6317651;22;20279;-84
2023/03/16 04:17:07;;;;;;;5.43;4.43;;;;;;;1.29;100.00;99833.34;6262417;22;20167;-82
2023/03/16 04:19:41;;;;;;;7.43;5.37;;;;;;;1.26;100.00;99831.84;6288318;22;20136;-83
2023/03/16 04:22:12;;;;;;;5.47;4.80;;;;;;;1.28;100.00;99836.97;6287564;22;20166;-81
2023/03/16 04:24:46;;;;;;;4.87;4.43;;;;;;;1.25;100.00;99837.28;6285753;22;20181;-80
2023/03/16 04:27:17;;;;;;;5.90;4.17;;;;;;;1.08;100.00;99838.97;6260804;22;20526;-84
2023/03/16 04:29:49;;;;;;;5.10;4.67;;;;;;;1.28;100.00;99842.25;6287126;22;20167;-84
2023/03/16 04:32:19;;;;;;;6.40;4.60;;;;;;;1.10;100.00;99844.94;6286194;22;20170;-84
2023/03/16 04:34:48;;;;;;;6.40;4.80;;;;;;;0.96;100.00;99840.22;6286532;22;20179;-83
2023/03/16 04:37:17;;;;;;;5.47;4.97;;;;;;;1.00;100.00;99848.66;6311641;22;20198;-81
2023/03/16 04:39:47;;;;;;;6.27;4.63;;;;;;;1.12;100.00;99852.72;6260324;22;20212;-84
2023/03/16 04:42:14;;;;;;;6.23;5.10;;;;;;;1.02;100.00;99850.16;6285920;22;20163;-82
2023/03/16 04:44:43;;;;;;;5.00;4.50;;;;;;;1.03;100.00;99850.97;6260635;22;20175;-81
2023/03/16 04:47:15;;;;;;;5.73;5.00;;;;;;;0.96;100.00;99853.41;6287098;22;20179;-82
2023/03/16 04:49:44;;;;;;;6.93;4.83;;;;;;;0.91;100.00;99854.84;6311592;22;20208;-84
2023/03/16 04:52:11;;;;;;;5.13;4.47;;;;;;;0.92;100.00;99852.06;6313226;22;20281;-82
2023/03/16 04:54:41;;;;;;;5.83;4.87;;;;;;;0.84;100.00;99871.25;6288790;22;20174;-86
2023/03/16 04:57:18;;;;;;;5.67;4.87;;;;;;;0.93;100.00;99859.00;6288831;22;20171;-81
2023/03/16 04:59:47;;;;;;;5.23;4.73;;;;;;;0.86;100.00;99871.13;6313093;22;20490;-82
2023/03/16 05:02:25;;;;;;;7.13;5.03;;;;;;;0.79;100.00;99876.16;6266565;22;20183;-81
2023/03/16 05:04:54;;;;;;;6.13;4.77;;;;;;;0.87;100.00;99875.44;6288131;22;20608;-82
2023/03/16 05:07:23;;;;;;;5.93;4.70;;;;;;;1.01;100.00;99871.41;6312988;22;20237;-82
2023/03/16 05:09:53;;;;;;;5.50;4.57;;;;;;;0.97;100.00;99884.09;6287910;22;20815;-80
2023/03/16 05:12:20;;;;;;;5.27;4.47;;;;;;;1.03;100.00;99883.47;6287742;22;20494;-85
2023/03/16 05:14:54;;;;;;;8.13;4.90;;;;;;;1.01;100.00;99884.59;6288496;22;20210;-84
2023/03/16 05:17:36;;;;;;;6.13;4.90;;;;;;;1.03;100.00;99885.25;6290235;22;20171;-82
2023/03/16 05:20:07;;;;;;;4.93;4.43;;;;;;;1.04;100.00;99881.66;6263460;22;20617;-81
2023/03/16 05:22:40;;;;;;;6.27;5.03;;;;;;;1.01;100.00;99881.97;6287688;22;20171;-81
2023/03/16 05:25:24;;;;;;;5.93;4.73;;;;;;;1.05;100.00;99889.44;6269097;22;20167;-83
2023/03/16 05:27:53;;;;;;;7.03;4.60;;;;;;;1.01;100.00;99892.53;6313144;22;20167;-83
2023/03/16 05:30:38;;;;;;;5.13;4.30;;;;;;;1.10;100.00;99887.16;6312930;22;20612;-81
2023/03/16 05:33:10;;;;;;;7.53;4.70;;;;;;;1.06;100.00;99901.66;6314857;22;20155;-81
2023/03/16 05:35:37;;;;;;;5.97;5.00;;;;;;;1.17;100.00;99887.38;6287178;22;20216;-82
2023/03/16 05:38:08;;;;;;;5.20;4.70;;;;;;;1.21;100.00;99894.03;6313036;22;20163;-80
2023/03/16 05:40:41;;;;;;;6.33;5.07;;;;;;;1.40;100.00;99890.34;6288414;22;20174;-83
2023/03/16 05:43:31;;;;;;;6.97;5.00;;;;;;;1.39;100.00;99900.09;6312957;22;20179;-81
2023/03/16 05:45:58;;;;;;;5.20;4.47;;;;;;;1.48;100.00;99906.25;6286802;22;20186;-82
2023/03/16 05:48:25;;;;;;;6.67;4.80;;;;;;;1.68;100.00;99902.44;6287470;22;20186;-81
2023/03/16 05:50:57;;;;;;;5.97;4.87;;;;;;;1.76;100.00;99915.69;6312928;22;20183;-80
2023/03/16 05:53:28;;;;;;;5.93;4.90;;;;;;;1.85;100.00;99913.91;6287960;22;20200;-80
2023/03/16 05:56:09;;;;;;;6.17;4.87;;;;;;;1.83;100.00;99915.84;6277563;22;20195;-81
2023/03/16 05:58:41;;;;;;;6.57;5.20;;;;;;;2.01;99.77;99916.63;6311553;22;20163;-80
2023/03/16 06:01:22;;;;;;;6.47;5.20;;;;;;;2.10;99.66;99926.25;6338326;22;20178;-80
2023/03/16 06:03:50;;;;;;;7.37;4.80;;;;;;;2.24;98.71;99932.78;6284926;22;20182;-83
2023/03/16 06:06:28;;;;;;;6.40;4.77;;;;;;;2.37;97.82;99936.63;6265581;22;20203;-81
2023/03/16 06:09:04;;;;;;;5.63;5.03;;;;;;;2.46;97.21;99938.31;6286637;22;20163;-82
2023/03/16 06:11:34;;;;;;;5.20;4.70;;;;;;;2.52;97.12;99936.84;6310755;22;20167;-80
2023/03/16 06:14:11;;;;;;;5.43;4.83;;;;;;;2.62;96.31;99943.63;6286406;22;20205;-80
2023/03/16 06:16:37;;;;;;;5.27;4.60;;;;;;;2.76;95.59;99944.00;6285558;22;20612;-82
2023/03/16 06:19:06;;;;;;;5.73;4.80;;;;;;;2.85;94.72;99948.31;6286166;22;20202;-80
2023/03/16 06:21:33;;;;;;;5.73;4.80;;;;;;;3.00;94.40;99957.28;6311098;22;20209;-79
2023/03/16 06:24:10;;;;;;;5.27;4.77;;;;;;;3.08;93.72;99960.75;6286430;22;20789;-80
2023/03/16 06:26:37;;;;;;;7.10;5.07;;;;;;;3.20;93.11;99957.81;6287038;22;20187;-81
2023/03/16 06:29:09;;;;;;;5.37;4.73;;;;;;;3.22;92.89;99955.84;6285941;22;20170;-82
2023/03/16 06:31:38;;;;;;;5.53;4.67;;;;;;;3.34;92.77;99965.94;6311401;22;20170;-81
2023/03/16 06:34:10;;;;;;;7.40;4.90;;;;;;;3.43;90.91;99964.94;6312493;22;20213;-80
2023/03/16 06:36:39;;;;;;;5.10;4.47;;;;;;;3.51;90.74;99974.69;6285847;22;20167;-81
2023/03/16 06:39:10;;;;;;;6.53;4.90;;;;;;;3.56;89.63;99969.72;6311552;22;20548;-81
2023/03/16 06:41:52;;;;;;;5.03;4.53;;;;;;;3.65;88.77;99968.72;6288566;22;20190;-81
2023/03/16 06:44:21;;;;;;;6.47;4.43;;;;;;;3.64;89.26;99987.47;6311773;22;20169;-81
2023/03/16 06:47:02;;;;;;;5.43;4.87;;;;;;;3.75;88.46;99982.63;6288559;22;20189;-83
2023/03/16 06:49:32;;;;;;;5.50;4.93;;;;;;;3.81;88.01;99989.09;6286764;22;20555;-83
2023/03/16 06:52:02;;;;;;;5.97;4.43;;;;;;;3.92;87.04;99989.56;6285780;22;20178;-81
2023/03/16 06:54:33;;;;;;;5.23;4.53;;;;;;;4.04;84.87;99991.88;6285704;22;20175;-84
2023/03/16 06:57:00;;;;;;;5.27;4.17;;;;;;;4.20;85.20;100002.47;6260653;22;20166;-83
2023/03/16 06:59:27;;;;;;;4.53;4.10;;;;;;;4.27;85.37;100001.59;6260170;22;20182;-80
2023/03/16 07:01:57;;;;;;;5.47;4.37;;;;;;;4.30;85.15;100000.41;6286195;22;20190;-82
2023/03/16 07:04:24;;;;;;;4.97;4.30;;;;;;;4.49;83.24;100007.16;6338256;22;20159;-81
2023/03/16 07:06:55;;;;;;;5.37;3.83;;;;;;;4.55;81.34;100002.00;6310901;22;20217;-83
2023/03/16 07:09:24;;;;;;;3.83;3.50;;;;;;;4.55;81.79;100001.16;6310692;22;20170;-79
2023/03/16 07:11:54;;;;;;;6.90;3.80;;;;;;;4.62;80.31;100002.94;6311079;22;20171;-81
2023/03/16 07:14:22;;;;;;;4.60;3.90;;;;;;;4.56;80.44;99995.69;6311869;22;20237;-80
2023/03/16 07:16:51;;;;;;;4.93;4.20;;;;;;;4.70;81.10;99994.97;6285765;22;20167;-83
2023/03/16 07:19:19;;;;;;;4.60;3.80;;;;;;;4.72;80.42;99997.44;6286037;22;20174;-82
2023/03/16 07:21:48;;;;;;;4.67;4.27;;;;;;;4.71;80.50;99998.47;6311149;22;20171;-83
2023/03/16 07:24:19;;;;;;;5.23;4.23;;;;;;;4.81;80.22;99999.06;6311965;22;20143;-81
2023/03/16 07:26:54;;;;;;;6.13;3.60;;;;;;;4.86;78.03;99996.72;6338372;22;20229;-80
2023/03/16 07:29:27;;;;;;;5.03;3.80;;;;;;;4.83;78.18;99997.91;6286276;22;20186;-83
2023/03/16 07:31:58;;;;;;;8.37;5.33;;;;;;;4.95;77.97;100003.63;6310853;22;20250;-82
2023/03/16 07:34:34;;;;;;;4.87;3.63;;;;;;;4.93;77.80;100004.81;6286657;22;20232;-81
2023/03/16 07:37:01;;;;;;;5.70;3.30;;;;;;;4.90;77.45;99995.34;6310758;22;20201;-81
2023/03/16 07:39:30;;;;;;;5.03;3.57;;;;;;;4.95;77.32;100006.28;6285929;22;20613;-83
2023/03/16 07:42:05;;;;;;;4.20;3.10;;;;;;;4.89;77.03;100001.69;6313571;22;20226;-81
2023/03/16 07:44:46;;;;;;;5.87;3.40;;;;;;;4.94;76.14;100012.63;6288595;22;20167;-82
2023/03/16 07:47:12;;;;;;;4.20;3.27;;;;;;;5.05;76.51;100008.72;6310994;22;20187;-82
2023/03/16 07:49:41;;;;;;;6.17;3.60;;;;;;;5.17;75.33;100002.03;6285373;22;20171;-83
2023/03/16 07:52:08;;;;;;;3.80;3.23;;;;;;;5.22;74.88;99999.66;6310908;22;20249;-82
2023/03/16 07:54:39;;;;;;;3.83;3.33;;;;;;;5.27;75.28;100007.94;6285495;22;20166;-81
2023/03/16 07:57:08;;;;;;;4.07;3.43;;;;;;;5.45;74.69;100002.31;6285463;22;20186;-81
2023/03/16 07:59:39;;;;;;;4.43;3.63;;;;;;;5.35;74.73;100007.03;6261817;22;20233;-82
2023/03/16 08:02:11;;;;;;;4.73;2.90;;;;;;;5.54;73.91;100002.09;6284780;22;20246;-82
2023/03/16 08:04:43;;;;;;;5.10;2.90;;;;;;;5.57;73.17;100012.34;6284352;22;20194;-83
2023/03/16 08:07:16;;;;;;;5.77;3.33;;;;;;;5.72;73.29;100012.41;6261628;22;20190;-81
2023/03/16 08:09:53;;;;;;;3.50;3.20;;;;;;;5.75;72.76;100012.03;6287089;22;20178;-82
2023/03/16 08:12:27;;;;;;;3.63;2.90;;;;;;;5.82;71.94;100013.00;6262100;22;20213;-81
2023/03/16 08:14:56;;;;;;;4.50;3.30;;;;;;;5.92;71.94;100013.59;6260753;22;20222;-81
2023/03/16 08:17:29;;;;;;;5.27;3.00;;;;;;;6.02;71.70;100024.78;6286172;22;20166;-78
2023/03/16 08:20:13;;;;;;;4.23;2.83;;;;;;;5.96;69.48;100020.22;6286250;22;20627;-79
2023/03/16 08:22:45;;;;;;;3.87;3.40;;;;;;;5.89;70.58;100029.91;6310382;22;20158;-82
2023/03/16 08:25:18;;;;;;;5.30;3.10;;;;;;;6.19;71.08;100028.13;6261543;22;20601;-79
2023/03/16 08:27:58;;;;;;;5.40;3.60;;;;;;;6.03;70.91;100036.25;6287231;22;20709;-81
2023/03/16 08:30:25;;;;;;;4.77;3.40;;;;;;;5.85;70.69;100038.38;6310163;22;20167;-79
2023/03/16 08:33:12;;;;;;;5.80;3.20;;;;;;;6.03;69.11;100045.06;6310849;22;20167;-81
2023/03/16 08:35:45;;;;;;;4.53;2.70;;;;;;;6.00;67.27;100048.09;6286515;22;20162;-80
2023/03/16 08:38:14;;;;;;;3.40;2.80;;;;;;;6.22;68.51;100042.88;6259908;22;20163;-79
2023/03/16 08:40:48;;;;;;;3.37;2.90;;;;;;;6.32;67.46;100049.59;6285481;22;20173;-79
2023/03/16 08:43:22;;;;;;;3.27;2.33;;;;;;;6.22;65.82;100041.06;6285099;22;20173;-82
2023/03/16 08:45:54;;;;;;;3.83;2.20;;;;;;;6.28;64.16;100042.16;6309853;22;20173;-78
2023/03/16 08:48:25;;;;;;;4.07;2.60;;;;;;;6.62;63.86;100037.16;6310400;22;20183;-81
2023/03/16 08:50:54;;;;;;;4.40;2.77;;;;;;;6.78;64.95;100047.59;6284894;22;20167;-79
2023/03/16 08:53:21;;;;;;;5.13;2.50;;;;;;;6.45;64.36;100038.31;6310313;22;20190;-79
2023/03/16 08:56:00;;;;;;;4.40;2.47;;;;;;;6.50;63.24;100034.09;6311086;22;20162;-79
2023/03/16 08:58:29;;;;;;;4.10;2.07;;;;;;;6.76;62.50;100046.13;6310257;22;20545;-78
2023/03/16 09:00:59;;;;;;;4.03;2.67;;;;;;;6.31;64.04;100037.31;6310166;22;20261;-80
2023/03/16 09:03:26;;;;;;;4.60;2.43;;;;;;;6.69;64.08;100040.72;6310396;22;20170;-80
2023/03/16 09:05:53;;;;;;;3.77;1.87;;;;;;;6.92;61.47;100043.25;6310556;22;20183;-78
2023/03/16 09:08:20;;;;;;;2.40;2.20;;;;;;;7.05;60.24;100048.75;6310611;22;20632;-79
2023/03/16 09:10:47;;;;;;;4.47;2.10;;;;;;;7.09;58.57;100045.53;6337464;22;20151;-79
2023/03/16 09:13:15;;;;;;;3.77;2.10;;;;;;;6.89;58.60;100039.16;6309895;22;20606;-82
2023/03/16 09:15:44;;;;;;;3.63;1.93;;;;;;;6.70;57.64;100039.72;6310948;22;20182;-79
2023/03/16 09:18:20;;;;;;;2.97;1.80;;;;;;;6.39;57.42;100039.88;6337698;22;20151;-78
2023/03/16 09:20:54;;;;;;;2.00;1.40;;;;;;;6.59;57.04;100040.16;6311003;22;20151;-79
2023/03/16 09:23:23;;;;;;;1.90;1.37;;;;;;;6.57;56.55;100039.53;6337661;22;20147;-80
2023/03/16 09:25:53;;;;;;;2.87;1.90;;;;;;;6.93;57.58;100036.94;6284344;22;20163;-82
2023/03/16 09:28:20;;;;;;;3.53;2.00;;;;;;;6.72;56.83;100042.19;6310177;22;20246;-79
2023/03/16 09:30:48;;;;;;;1.43;1.23;;;;;;;7.00;53.15;100035.16;6310846;22;20158;-80
2023/03/16 09:33:15;;;;;;;2.20;1.17;;;;;;;7.28;52.63;100041.44;6310552;22;20159;-80
2023/03/16 09:35:45;;;;;;;4.40;1.97;;;;;;;6.97;54.41;100038.19;6309919;22;20167;-83
2023/03/16 09:38:12;;;;;;;5.23;2.10;;;;;;;7.25;54.60;100039.16;6338430;22;20246;-82
2023/03/16 09:40:49;;;;;;;2.70;1.87;;;;;;;7.73;54.79;100042.94;6288971;22;20139;-79
2023/03/16 09:43:32;;;;;;;3.93;2.20;;;;;;;7.73;54.89;100039.44;6312864;22;20151;-80
2023/03/16 09:46:04;;;;;;;4.60;2.43;;;;;;;7.82;55.69;100044.44;6338853;22;20188;-82
2023/03/16 09:48:36;;;;;;;4.57;2.03;;;;;;;8.01;53.17;100037.63;6312065;22;20658;-82
2023/03/16 09:51:17;;;;;;;3.93;1.90;;;;;;;8.04;53.20;100052.41;6311672;22;20238;-79
2023/03/16 09:53:46;;;;;;;2.03;1.70;;;;;;;7.94;53.01;100036.75;6286141;22;20151;-82
2023/03/16 09:56:19;;;;;;;4.23;2.00;;;;;;;7.97;52.99;100037.19;6286862;22;20167;-80
2023/03/16 09:58:49;;;;;;;2.80;1.70;;;;;;;7.68;51.22;100040.00;6286489;22;20589;-79
2023/03/16 10:01:36;;;;;;;3.37;1.80;;;;;;;7.93;51.99;100041.25;6312381;22;20171;-79
2023/03/16 10:04:14;;;;;;;4.00;2.00;;;;;;;8.00;51.27;100038.66;6312870;22;20155;-79
2023/03/16 10:06:59;;;;;;;2.70;1.60;;;;;;;8.13;51.21;100041.41;6286845;22;20179;-80
2023/03/16 10:09:37;;;;;;;2.40;1.40;;;;;;;7.76;50.90;100031.88;6313476;22;20169;-80
2023/03/16 10:12:08;;;;;;;3.53;1.40;;;;;;;7.32;51.33;100031.25;6288668;22;20158;-80
2023/03/16 10:14:45;;;;;;;2.40;1.47;;;;;;;7.51;51.40;100033.28;6285814;22;20195;-79
2023/03/16 10:17:12;;;;;;;1.60;1.40;;;;;;;7.53;50.78;100031.25;6311803;22;20167;-79
2023/03/16 10:19:58;;;;;;;3.53;1.70;;;;;;;7.34;50.98;100031.84;6286268;22;20167;-79
2023/03/16 10:22:33;;;;;;;2.27;1.67;;;;;;;7.66;50.58;100027.88;6262321;22;20609;-80
2023/03/16 10:25:00;;;;;;;3.77;1.43;;;;;;;7.67;51.56;100035.69;6312363;22;20643;-79
2023/03/16 10:27:37;;;;;;;4.17;1.50;;;;;;;7.74;50.43;100028.59;6285971;22;20237;-82
2023/03/16 10:30:18;;;;;;;2.27;1.57;;;;;;;7.54;49.55;100027.56;6286551;22;20139;-80
2023/03/16 10:32:47;;;;;;;3.20;1.50;;;;;;;8.02;49.60;100039.28;6261149;22;20457;-79
2023/03/16 10:35:40;;;;;;;2.70;1.30;;;;;;;8.50;49.42;100034.09;6312390;22;20151;-79
2023/03/16 10:38:50;;;;;;;2.30;1.20;;;;;;;8.89;48.57;100028.16;6311385;22;20177;-80
2023/03/16 10:41:27;;;;;;;3.10;1.40;;;;;;;8.74;46.59;100026.44;6329502;22;20167;-79
2023/03/16 10:43:56;;;;;;;2.90;1.23;;;;;;;8.18;47.39;100036.31;6311904;22;20157;-78
2023/03/16 10:46:26;;;;;;;1.40;1.30;;;;;;;7.83;47.53;100019.44;6311432;22;20662;-81
2023/03/16 10:49:02;;;;;;;2.97;1.70;;;;;;;8.34;47.33;100032.56;6312525;22;20167;-79
2023/03/16 10:51:34;;;;;;;4.03;1.40;;;;;;;8.38;46.04;100031.97;6338669;22;20841;-79
2023/03/16 10:54:15;;;;;;;4.30;1.30;;;;;;;8.40;46.93;100031.78;6286230;22;20151;-85
2023/03/16 10:56:45;;;;;;;2.37;1.50;;;;;;;8.03;46.53;100024.91;6285956;22;20174;-80
2023/03/16 10:59:33;;;;;;;2.17;1.30;;;;;;;8.38;46.41;100017.81;6312130;22;20155;-80
2023/03/16 11:02:26;;;;;;;2.00;1.37;;;;;;;8.18;47.19;100016.81;6338476;22;20178;-83
2023/03/16 11:04:53;;;;;;;2.40;1.30;;;;;;;7.64;45.50;100013.91;6265605;22;20177;-81
2023/03/16 11:07:24;;;;;;;2.70;1.30;;;;;;;7.75;47.75;100021.38;6285443;22;20765;-80
2023/03/16 11:09:55;;;;;;;2.40;1.50;;;;;;;7.91;48.97;100016.63;6285343;22;20159;-81
2023/03/16 11:12:27;;;;;;;3.47;1.47;;;;;;;8.33;48.86;100029.06;6285915;22;20155;-80
2023/03/16 11:15:12;;;;;;;2.30;1.40;;;;;;;8.47;46.58;100024.63;6312984;22;20245;-80
2023/03/16 11:17:52;;;;;;;3.57;1.57;;;;;;;8.67;46.77;100019.41;6313870;22;20148;-81
2023/03/16 11:20:29;;;;;;;2.73;1.40;;;;;;;8.46;46.20;100014.97;6260075;22;20171;-81
2023/03/16 11:23:04;;;;;;;2.77;1.60;;;;;;;8.32;46.07;100018.59;6285859;22;20242;-81
2023/03/16 11:25:52;;;;;;;2.03;1.23;;;;;;;8.81;45.91;100015.78;6311199;22;20146;-82
2023/03/16 11:28:41;;;;;;;3.47;1.50;;;;;;;8.66;45.78;100017.75;6311780;22;20171;-80
2023/03/16 11:31:27;;;;;;;2.10;1.60;;;;;;;8.69;45.25;100014.69;6313225;22;20140;-80
2023/03/16 11:34:07;;;;;;;2.53;1.40;;;;;;;8.21;46.45;100008.44;6311066;22;20185;-81
2023/03/16 11:36:59;;;;;;;1.70;1.60;;;;;;;8.44;46.77;100008.19;6310459;22;20205;-81
2023/03/16 11:39:49;;;;;;;2.17;1.17;;;;;;;8.94;45.36;100007.81;6310982;22;20621;-82
2023/03/16 11:42:37;;;;;;;2.00;1.43;;;;;;;9.06;43.81;99998.19;6285289;22;20167;-80
2023/03/16 11:45:18;;;;;;;2.43;1.30;;;;;;;9.22;43.63;99995.16;6311532;22;20168;-79
2023/03/16 11:47:49;;;;;;;2.60;1.37;;;;;;;9.39;43.70;99992.94;6259843;22;20187;-81
2023/03/16 11:50:44;;;;;;;1.77;1.40;;;;;;;8.89;42.77;99978.19;6339119;22;20762;-82
2023/03/16 11:53:22;;;;;;;2.40;1.20;;;;;;;9.09;42.62;99980.94;6262222;22;20167;-84
2023/03/16 11:56:17;;;;;;;2.73;1.40;;;;;;;9.11;42.78;99982.38;6311776;22;20167;-81
2023/03/16 11:58:54;;;;;;;2.43;1.30;;;;;;;9.13;42.56;99983.00;6261342;22;20154;-82
2023/03/16 12:02:06;;;;;;;2.80;1.60;;;;;;;9.51;42.24;99979.78;6286280;22;20528;-83
2023/03/16 12:04:55;;;;;;;1.93;1.27;;;;;;;9.69;42.66;99972.81;6263495;22;20167;-85
2023/03/16 12:07:32;;;;;;;2.53;1.20;;;;;;;9.69;42.76;99964.78;6286502;22;20193;-84
2023/03/16 12:10:05;;;;;;;3.00;1.70;;;;;;;9.79;43.10;99961.69;6285925;22;20163;-84
2023/03/16 12:12:36;;;;;;;4.33;1.47;;;;;;;10.11;43.05;99962.69;6285842;22;20167;-82
2023/03/16 12:15:15;;;;;;;3.57;1.53;;;;;;;10.11;41.48;99952.00;6311877;22;20261;-82
2023/03/16 12:17:43;;;;;;;2.10;1.20;;;;;;;9.95;41.33;99958.59;6311753;22;20151;-82
2023/03/16 12:20:22;;;;;;;3.00;1.70;;;;;;;9.68;42.29;99946.25;6260499;22;20213;-82
2023/03/16 12:22:52;;;;;;;1.53;1.17;;;;;;;9.60;41.59;99949.97;6286354;22;20192;-83
2023/03/16 12:25:25;;;;;;;2.20;1.53;;;;;;;9.57;40.97;99955.72;6286971;22;20158;-85
2023/03/16 12:27:56;;;;;;;1.97;1.50;;;;;;;9.29;40.44;99950.53;6287225;22;20182;-81
2023/03/16 12:30:42;;;;;;;2.83;1.20;;;;;;;9.60;40.09;99943.78;6286392;22;20186;-82
2023/03/16 12:33:21;;;;;;;2.17;1.10;;;;;;;9.84;40.29;99935.16;6285720;22;20163;-81
2023/03/16 12:36:03;;;;;;;3.63;1.50;;;;;;;9.44;40.77;99922.78;6311400;22;20767;-82
2023/03/16 12:38:44;;;;;;;2.90;1.43;;;;;;;9.51;40.66;99927.13;6261845;22;20170;-82
2023/03/16 12:41:44;;;;;;;2.37;1.40;;;;;;;9.67;40.50;99931.22;6286410;22;20232;-82
2023/03/16 12:44:18;;;;;;;2.23;1.60;;;;;;;9.52;40.76;99934.09;6261607;22;20174;-81
2023/03/16 12:47:18;;;;;;;2.43;1.40;;;;;;;9.65;40.43;99920.75;6260501;22;20585;-84
2023/03/16 12:49:51;;;;;;;1.40;1.30;;;;;;;9.56;40.42;99932.69;6262560;22;20250;-82
2023/03/16 12:52:21;;;;;;;2.40;1.60;;;;;;;9.76;40.79;99924.63;6286336;22;20169;-82
2023/03/16 12:55:04;;;;;;;2.10;1.63;;;;;;;9.62;40.07;99917.63;6286322;22;20504;-86
2023/03/16 12:57:42;;;;;;;2.80;1.70;;;;;;;9.76;40.44;99918.44;6286496;22;20178;-81
2023/03/16 13:00:13;;;;;;;2.53;1.80;;;;;;;9.39;40.99;99915.38;6311678;22;20156;-82
2023/03/16 13:02:49;;;;;;;2.43;1.70;;;;;;;9.17;41.49;99919.28;6260429;22;20202;-83
2023/03/16 13:05:29;;;;;;;3.47;1.83;;;;;;;9.53;42.29;99902.81;6260593;22;20170;-81
2023/03/16 13:08:26;;;;;;;2.43;1.77;;;;;;;10.02;41.12;99911.22;6276513;22;20167;-81
2023/03/16 13:11:05;;;;;;;2.50;1.60;;;;;;;9.80;40.90;99901.78;6283579;22;20598;-83
2023/03/16 13:13:33;;;;;;;2.53;1.60;;;;;;;10.14;40.17;99903.38;6278566;22;20199;-80
2023/03/16 13:16:10;;;;;;;2.17;1.77;;;;;;;9.58;40.74;99900.34;6256377;22;20187;-83
2023/03/16 13:18:43;;;;;;;2.40;1.70;;;;;;;9.83;39.78;99903.22;6281879;22;20166;-81
2023/03/16 13:21:20;;;;;;;4.17;1.87;;;;;;;9.65;40.14;99914.56;6308768;22;20148;-79
2023/03/16 13:23:58;;;;;;;5.53;1.73;;;;;;;9.76;40.07;99907.75;6308879;22;20151;-79
2023/03/16 13:26:40;;;;;;;2.53;1.80;;;;;;;9.64;40.77;99907.56;6230356;22;20184;-81
2023/03/16 13:29:29;;;;;;;3.43;1.97;;;;;;;10.12;39.99;99900.09;6256114;22;20267;-80
2023/03/16 13:32:06;;;;;;;4.00;2.10;;;;;;;10.36;39.06;99903.97;6231823;22;20221;-79
2023/03/16 13:34:56;;;;;;;2.90;1.63;;;;;;;10.47;38.50;99898.75;6256264;22;20617;-81
2023/03/16 13:37:44;;;;;;;2.47;1.60;;;;;;;10.49;38.29;99895.88;6264223;22;20182;-83
2023/03/16 13:40:20;;;;;;;3.00;1.73;;;;;;;10.52;38.30;99892.75;6308371;22;20194;-80
2023/03/16 13:42:53;;;;;;;2.47;1.67;;;;;;;10.02;39.07;99897.84;6256018;22;20178;-79
2023/03/16 13:45:26;;;;;;;2.33;1.97;;;;;;;10.06;39.35;99899.06;6283044;22;20151;-82
2023/03/16 13:47:53;;;;;;;3.07;1.93;;;;;;;9.65;39.63;99895.84;6255891;22;20193;-82
2023/03/16 13:50:33;;;;;;;2.53;2.10;;;;;;;9.76;38.91;99894.38;6256398;22;20201;-80
2023/03/16 13:53:16;;;;;;;4.07;2.00;;;;;;;10.04;39.09;99898.44;6283059;22;20152;-81
2023/03/16 13:55:47;;;;;;;3.77;2.03;;;;;;;10.27;37.92;99884.59;6232725;22;20163;-81
2023/03/16 13:58:19;;;;;;;2.97;1.90;;;;;;;10.05;38.01;99885.88;6255868;22;20249;-81
2023/03/16 14:00:47;;;;;;;3.57;1.80;;;;;;;10.43;38.18;99886.81;6268824;22;20275;-81
2023/03/16 14:03:20;;;;;;;3.30;1.83;;;;;;;10.62;37.94;99886.94;6281356;22;20160;-83
2023/03/16 14:05:49;;;;;;;2.90;2.07;;;;;;;10.43;36.72;99894.03;6256488;22;20594;-80
2023/03/16 14:08:22;;;;;;;2.50;2.00;;;;;;;10.50;36.71;99879.56;6280764;22;20208;-80